sensor_id;sensor_type;location;lat;lon;timestamp;temperature;humidity
4964;DHT22;2497;47.410;9.740;2023-05-13T00:00:54;10.90;99.90
4964;DHT22;2497;47.410;9.740;2023-05-13T00:03:21;10.90;99.90
4964;DHT22;2497;47.410;9.740;2023-05-13T00:05:48;10.90;99.90
4964;DHT22;2497;47.410;9.740;2023-05-13T00:08:15;11.00;99.90
4964;DHT22;2497;47.410;9.740;2023-05-13T00:10:46;11.00;99.90
4964;DHT22;2497;47.410;9.740;2023-05-13T00:13:13;10.90;99.90
4964;DHT22;2497;47.410;9.740;2023-05-13T00:15:40;11.00;99.90
4964;DHT22;2497;47.410;9.740;2023-05-13T00:18:07;10.90;99.90
4964;DHT22;2497;47.410;9.740;2023-05-13T00:20:34;11.00;99.90
4964;DHT22;2497;47.410;9.740;2023-05-13T00:23:02;11.00;99.90
4964;DHT22;2497;47.410;9.740;2023-05-13T00:25:29;11.00;99.90
4964;DHT22;2497;47.410;9.740;2023-05-13T00:27:57;11.00;99.90
4964;DHT22;2497;47.410;9.740;2023-05-13T00:30:25;11.00;99.90
4964;DHT22;2497;47.410;9.740;2023-05-13T00:32:52;11.00;99.90
4964;DHT22;2497;47.410;9.740;2023-05-13T00:35:19;11.00;99.90
4964;DHT22;2497;47.410;9.740;2023-05-13T00:37:46;11.00;99.90
4964;DHT22;2497;47.410;9.740;2023-05-13T00:40:18;10.90;99.90
4964;DHT22;2497;47.410;9.740;2023-05-13T00:42:46;10.90;99.90
4964;DHT22;2497;47.410;9.740;2023-05-13T00:45:15;11.00;99.90
4964;DHT22;2497;47.410;9.740;2023-05-13T00:47:42;11.00;99.90
4964;DHT22;2497;47.410;9.740;2023-05-13T00:50:10;11.00;99.90
4964;DHT22;2497;47.410;9.740;2023-05-13T00:52:38;11.00;99.90
4964;DHT22;2497;47.410;9.740;2023-05-13T00:55:06;11.00;99.90
4964;DHT22;2497;47.410;9.740;2023-05-13T00:57:34;11.00;99.90
4964;DHT22;2497;47.410;9.740;2023-05-13T01:00:02;11.00;99.90
4964;DHT22;2497;47.410;9.740;2023-05-13T01:02:36;11.10;99.90
4964;DHT22;2497;47.410;9.740;2023-05-13T01:05:11;11.10;99.90
4964;DHT22;2497;47.410;9.740;2023-05-13T01:07:45;11.10;99.90
4964;DHT22;2497;47.410;9.740;2023-05-13T01:10:23;11.10;99.90
4964;DHT22;2497;47.410;9.740;2023-05-13T01:12:58;11.20;99.90
4964;DHT22;2497;47.410;9.740;2023-05-13T01:15:26;11.20;99.90
4964;DHT22;2497;47.410;9.740;2023-05-13T01:17:59;11.10;99.90
4964;DHT22;2497;47.410;9.740;2023-05-13T01:20:32;11.10;99.90
4964;DHT22;2497;47.410;9.740;2023-05-13T01:23:01;11.10;99.90
4964;DHT22;2497;47.410;9.740;2023-05-13T01:25:30;11.20;99.90
4964;DHT22;2497;47.410;9.740;2023-05-13T01:27:58;11.20;99.90
4964;DHT22;2497;47.410;9.740;2023-05-13T01:30:25;11.20;99.90
4964;DHT22;2497;47.410;9.740;2023-05-13T01:32:53;11.20;99.90
4964;DHT22;2497;47.410;9.740;2023-05-13T01:35:22;11.20;99.90
4964;DHT22;2497;47.410;9.740;2023-05-13T01:37:50;11.20;99.90
4964;DHT22;2497;47.410;9.740;2023-05-13T01:40:19;11.20;99.90
4964;DHT22;2497;47.410;9.740;2023-05-13T01:42:46;11.30;99.90
4964;DHT22;2497;47.410;9.740;2023-05-13T01:45:13;11.30;99.90
4964;DHT22;2497;47.410;9.740;2023-05-13T01:47:40;11.30;99.90
4964;DHT22;2497;47.410;9.740;2023-05-13T01:50:08;11.30;99.90
4964;DHT22;2497;47.410;9.740;2023-05-13T01:52:35;11.30;99.90
4964;DHT22;2497;47.410;9.740;2023-05-13T01:55:02;11.30;99.90
4964;DHT22;2497;47.410;9.740;2023-05-13T01:57:31;11.30;99.90
4964;DHT22;2497;47.410;9.740;2023-05-13T01:59:58;11.40;99.90
4964;DHT22;2497;47.410;9.740;2023-05-13T02:02:25;11.40;99.90
4964;DHT22;2497;47.410;9.740;2023-05-13T02:04:52;11.40;99.90
4964;DHT22;2497;47.410;9.740;2023-05-13T02:07:19;11.30;99.90
4964;DHT22;2497;47.410;9.740;2023-05-13T02:09:46;11.40;99.90
4964;DHT22;2497;47.410;9.740;2023-05-13T02:12:13;11.30;99.90
4964;DHT22;2497;47.410;9.740;2023-05-13T02:14:42;11.40;99.90
4964;DHT22;2497;47.410;9.740;2023-05-13T02:17:09;11.40;99.90
4964;DHT22;2497;47.410;9.740;2023-05-13T02:19:36;11.40;99.90
4964;DHT22;2497;47.410;9.740;2023-05-13T02:22:03;11.40;99.90
4964;DHT22;2497;47.410;9.740;2023-05-13T02:24:30;11.40;99.90
4964;DHT22;2497;47.410;9.740;2023-05-13T02:26:58;11.40;99.90
4964;DHT22;2497;47.410;9.740;2023-05-13T02:29:25;11.40;99.90
4964;DHT22;2497;47.410;9.740;2023-05-13T02:31:54;11.40;99.90
4964;DHT22;2497;47.410;9.740;2023-05-13T02:34:21;11.40;99.90
4964;DHT22;2497;47.410;9.740;2023-05-13T02:36:48;11.40;99.90
4964;DHT22;2497;47.410;9.740;2023-05-13T02:39:15;11.40;99.90
4964;DHT22;2497;47.410;9.740;2023-05-13T02:41:42;11.50;99.90
4964;DHT22;2497;47.410;9.740;2023-05-13T02:44:10;11.50;99.90
4964;DHT22;2497;47.410;9.740;2023-05-13T02:46:37;11.40;99.90
4964;DHT22;2497;47.410;9.740;2023-05-13T02:49:06;11.40;99.90
4964;DHT22;2497;47.410;9.740;2023-05-13T02:51:32;11.40;99.90
4964;DHT22;2497;47.410;9.740;2023-05-13T02:53:59;11.50;99.90
4964;DHT22;2497;47.410;9.740;2023-05-13T02:56:27;11.50;99.90
4964;DHT22;2497;47.410;9.740;2023-05-13T02:58:54;11.50;99.90
4964;DHT22;2497;47.410;9.740;2023-05-13T03:01:21;11.40;99.90
4964;DHT22;2497;47.410;9.740;2023-05-13T03:03:48;11.40;99.90
4964;DHT22;2497;47.410;9.740;2023-05-13T03:06:17;11.40;99.90
4964;DHT22;2497;47.410;9.740;2023-05-13T03:08:44;11.40;99.90
4964;DHT22;2497;47.410;9.740;2023-05-13T03:11:11;11.40;99.90
4964;DHT22;2497;47.410;9.740;2023-05-13T03:13:38;11.40;99.90
4964;DHT22;2497;47.410;9.740;2023-05-13T03:16:05;11.40;99.90
4964;DHT22;2497;47.410;9.740;2023-05-13T03:18:33;11.40;99.90
4964;DHT22;2497;47.410;9.740;2023-05-13T03:21:00;11.30;99.90
4964;DHT22;2497;47.410;9.740;2023-05-13T03:23:29;11.30;99.90
4964;DHT22;2497;47.410;9.740;2023-05-13T03:25:56;11.30;99.90
4964;DHT22;2497;47.410;9.740;2023-05-13T03:28:23;11.30;99.90
4964;DHT22;2497;47.410;9.740;2023-05-13T03:30:50;11.30;99.90
4964;DHT22;2497;47.410;9.740;2023-05-13T03:33:17;11.30;99.90
4964;DHT22;2497;47.410;9.740;2023-05-13T03:35:44;11.40;99.90
4964;DHT22;2497;47.410;9.740;2023-05-13T03:38:13;11.40;99.90
4964;DHT22;2497;47.410;9.740;2023-05-13T03:40:41;11.30;99.90
4964;DHT22;2497;47.410;9.740;2023-05-13T03:43:08;11.30;99.90
4964;DHT22;2497;47.410;9.740;2023-05-13T03:45:35;11.30;99.90
4964;DHT22;2497;47.410;9.740;2023-05-13T03:48:02;11.30;99.90
4964;DHT22;2497;47.410;9.740;2023-05-13T03:50:29;11.30;99.90
4964;DHT22;2497;47.410;9.740;2023-05-13T03:52:57;11.30;99.90
4964;DHT22;2497;47.410;9.740;2023-05-13T03:55:24;11.30;99.90
4964;DHT22;2497;47.410;9.740;2023-05-13T03:57:52;11.20;99.90
4964;DHT22;2497;47.410;9.740;2023-05-13T04:00:19;11.20;99.90
4964;DHT22;2497;47.410;9.740;2023-05-13T04:02:46;11.10;99.90
4964;DHT22;2497;47.410;9.740;2023-05-13T04:05:13;11.20;99.90
4964;DHT22;2497;47.410;9.740;2023-05-13T04:07:40;11.20;99.90
4964;DHT22;2497;47.410;9.740;2023-05-13T04:10:10;11.30;99.90
4964;DHT22;2497;47.410;9.740;2023-05-13T04:12:37;11.30;99.90
4964;DHT22;2497;47.410;9.740;2023-05-13T04:15:07;11.30;99.90
4964;DHT22;2497;47.410;9.740;2023-05-13T04:17:34;11.30;99.90
4964;DHT22;2497;47.410;9.740;2023-05-13T04:20:01;11.30;99.90
4964;DHT22;2497;47.410;9.740;2023-05-13T04:22:28;11.30;99.90
4964;DHT22;2497;47.410;9.740;2023-05-13T04:24:56;11.30;99.90
4964;DHT22;2497;47.410;9.740;2023-05-13T04:27:23;11.30;99.90
4964;DHT22;2497;47.410;9.740;2023-05-13T04:29:50;11.30;99.90
4964;DHT22;2497;47.410;9.740;2023-05-13T04:32:18;11.20;99.90
4964;DHT22;2497;47.410;9.740;2023-05-13T04:34:46;11.20;99.90
4964;DHT22;2497;47.410;9.740;2023-05-13T04:37:14;11.20;99.90
4964;DHT22;2497;47.410;9.740;2023-05-13T04:39:43;11.20;99.90
4964;DHT22;2497;47.410;9.740;2023-05-13T04:42:10;11.20;99.90
4964;DHT22;2497;47.410;9.740;2023-05-13T04:44:37;11.20;99.90
4964;DHT22;2497;47.410;9.740;2023-05-13T04:47:05;11.30;99.90
4964;DHT22;2497;47.410;9.740;2023-05-13T04:49:33;11.20;99.90
4964;DHT22;2497;47.410;9.740;2023-05-13T04:52:02;11.20;99.90
4964;DHT22;2497;47.410;9.740;2023-05-13T04:54:29;11.20;99.90
4964;DHT22;2497;47.410;9.740;2023-05-13T04:56:56;11.20;99.90
4964;DHT22;2497;47.410;9.740;2023-05-13T04:59:23;11.10;99.90
4964;DHT22;2497;47.410;9.740;2023-05-13T05:01:50;11.10;99.90
4964;DHT22;2497;47.410;9.740;2023-05-13T05:04:17;11.10;99.90
4964;DHT22;2497;47.410;9.740;2023-05-13T05:06:46;11.10;99.90
4964;DHT22;2497;47.410;9.740;2023-05-13T05:09:13;11.10;99.90
4964;DHT22;2497;47.410;9.740;2023-05-13T05:11:40;11.00;99.90
4964;DHT22;2497;47.410;9.740;2023-05-13T05:14:07;11.00;99.90
4964;DHT22;2497;47.410;9.740;2023-05-13T05:16:35;11.10;99.90
4964;DHT22;2497;47.410;9.740;2023-05-13T05:19:02;11.00;99.90
4964;DHT22;2497;47.410;9.740;2023-05-13T05:21:29;11.10;99.90
4964;DHT22;2497;47.410;9.740;2023-05-13T05:23:58;11.10;99.90
4964;DHT22;2497;47.410;9.740;2023-05-13T05:26:26;11.20;99.90
4964;DHT22;2497;47.410;9.740;2023-05-13T05:28:53;11.10;99.90
4964;DHT22;2497;47.410;9.740;2023-05-13T05:31:20;11.20;99.90
4964;DHT22;2497;47.410;9.740;2023-05-13T05:33:47;11.20;99.90
4964;DHT22;2497;47.410;9.740;2023-05-13T05:36:14;11.20;99.90
4964;DHT22;2497;47.410;9.740;2023-05-13T05:38:42;11.20;99.90
4964;DHT22;2497;47.410;9.740;2023-05-13T05:41:10;11.30;99.90
4964;DHT22;2497;47.410;9.740;2023-05-13T05:43:37;11.40;99.90
4964;DHT22;2497;47.410;9.740;2023-05-13T05:46:04;11.50;99.90
4964;DHT22;2497;47.410;9.740;2023-05-13T05:48:31;11.60;99.90
4964;DHT22;2497;47.410;9.740;2023-05-13T05:51:01;11.60;99.90
4964;DHT22;2497;47.410;9.740;2023-05-13T05:53:29;11.60;99.90
4964;DHT22;2497;47.410;9.740;2023-05-13T05:55:56;11.60;99.90
4964;DHT22;2497;47.410;9.740;2023-05-13T05:58:24;11.60;99.90
4964;DHT22;2497;47.410;9.740;2023-05-13T06:00:53;11.60;99.90
4964;DHT22;2497;47.410;9.740;2023-05-13T06:03:21;11.60;99.90
4964;DHT22;2497;47.410;9.740;2023-05-13T06:05:48;11.60;99.90
4964;DHT22;2497;47.410;9.740;2023-05-13T06:08:15;11.50;99.90
4964;DHT22;2497;47.410;9.740;2023-05-13T06:10:43;11.60;99.90
4964;DHT22;2497;47.410;9.740;2023-05-13T06:13:10;11.60;99.90
4964;DHT22;2497;47.410;9.740;2023-05-13T06:15:38;11.60;99.90
4964;DHT22;2497;47.410;9.740;2023-05-13T06:18:06;11.60;99.90
4964;DHT22;2497;47.410;9.740;2023-05-13T06:20:33;11.80;99.90
4964;DHT22;2497;47.410;9.740;2023-05-13T06:23:00;11.80;99.90
4964;DHT22;2497;47.410;9.740;2023-05-13T06:25:27;11.90;99.90
4964;DHT22;2497;47.410;9.740;2023-05-13T06:27:54;11.90;99.90
4964;DHT22;2497;47.410;9.740;2023-05-13T06:30:21;12.00;99.90
4964;DHT22;2497;47.410;9.740;2023-05-13T06:32:50;12.00;99.90
4964;DHT22;2497;47.410;9.740;2023-05-13T06:35:19;11.90;99.90
4964;DHT22;2497;47.410;9.740;2023-05-13T06:37:46;11.90;99.90
4964;DHT22;2497;47.410;9.740;2023-05-13T06:40:14;12.00;99.90
4964;DHT22;2497;47.410;9.740;2023-05-13T06:42:41;12.00;99.90
4964;DHT22;2497;47.410;9.740;2023-05-13T06:45:09;11.90;99.90
4964;DHT22;2497;47.410;9.740;2023-05-13T06:47:36;11.80;99.90
4964;DHT22;2497;47.410;9.740;2023-05-13T06:50:05;11.80;99.90
4964;DHT22;2497;47.410;9.740;2023-05-13T06:52:32;11.80;99.90
4964;DHT22;2497;47.410;9.740;2023-05-13T06:54:59;11.80;99.90
4964;DHT22;2497;47.410;9.740;2023-05-13T06:57:27;11.80;99.90
4964;DHT22;2497;47.410;9.740;2023-05-13T06:59:54;11.70;99.90
4964;DHT22;2497;47.410;9.740;2023-05-13T07:02:21;11.70;99.90
4964;DHT22;2497;47.410;9.740;2023-05-13T07:04:48;11.70;99.90
4964;DHT22;2497;47.410;9.740;2023-05-13T07:07:18;11.80;99.90
4964;DHT22;2497;47.410;9.740;2023-05-13T07:09:45;11.80;99.90
4964;DHT22;2497;47.410;9.740;2023-05-13T07:12:13;11.80;99.90
4964;DHT22;2497;47.410;9.740;2023-05-13T07:14:40;11.80;99.90
4964;DHT22;2497;47.410;9.740;2023-05-13T07:17:08;11.80;99.90
4964;DHT22;2497;47.410;9.740;2023-05-13T07:19:35;11.90;99.90
4964;DHT22;2497;47.410;9.740;2023-05-13T07:22:03;12.00;99.90
4964;DHT22;2497;47.410;9.740;2023-05-13T07:24:32;12.00;99.90
4964;DHT22;2497;47.410;9.740;2023-05-13T07:26:59;12.00;99.90
4964;DHT22;2497;47.410;9.740;2023-05-13T07:29:29;12.00;99.90
4964;DHT22;2497;47.410;9.740;2023-05-13T07:31:56;12.10;99.90
4964;DHT22;2497;47.410;9.740;2023-05-13T07:34:23;12.20;99.90
4964;DHT22;2497;47.410;9.740;2023-05-13T07:36:51;12.20;99.90
4964;DHT22;2497;47.410;9.740;2023-05-13T07:39:18;12.20;99.90
4964;DHT22;2497;47.410;9.740;2023-05-13T07:41:46;12.20;99.90
4964;DHT22;2497;47.410;9.740;2023-05-13T07:44:14;12.20;99.90
4964;DHT22;2497;47.410;9.740;2023-05-13T07:46:41;12.30;99.90
4964;DHT22;2497;47.410;9.740;2023-05-13T07:49:08;12.30;99.90
4964;DHT22;2497;47.410;9.740;2023-05-13T07:51:35;12.30;99.90
4964;DHT22;2497;47.410;9.740;2023-05-13T07:54:02;12.30;99.90
4964;DHT22;2497;47.410;9.740;2023-05-13T07:56:31;12.20;99.90
4964;DHT22;2497;47.410;9.740;2023-05-13T07:59:03;12.20;99.90
4964;DHT22;2497;47.410;9.740;2023-05-13T08:01:31;12.20;99.90
4964;DHT22;2497;47.410;9.740;2023-05-13T08:04:00;12.20;99.90
4964;DHT22;2497;47.410;9.740;2023-05-13T08:06:27;12.20;99.90
4964;DHT22;2497;47.410;9.740;2023-05-13T08:08:54;12.20;99.90
4964;DHT22;2497;47.410;9.740;2023-05-13T08:11:21;12.20;99.90
4964;DHT22;2497;47.410;9.740;2023-05-13T08:13:48;12.30;99.90
4964;DHT22;2497;47.410;9.740;2023-05-13T08:16:17;12.30;99.90
4964;DHT22;2497;47.410;9.740;2023-05-13T08:18:45;12.30;99.90
4964;DHT22;2497;47.410;9.740;2023-05-13T08:21:15;12.40;99.90
4964;DHT22;2497;47.410;9.740;2023-05-13T08:23:42;12.50;99.90
4964;DHT22;2497;47.410;9.740;2023-05-13T08:26:09;12.60;99.90
4964;DHT22;2497;47.410;9.740;2023-05-13T08:28:36;12.60;99.90
4964;DHT22;2497;47.410;9.740;2023-05-13T08:31:03;12.60;99.90
4964;DHT22;2497;47.410;9.740;2023-05-13T08:33:32;12.70;99.90
4964;DHT22;2497;47.410;9.740;2023-05-13T08:36:01;12.80;99.90
4964;DHT22;2497;47.410;9.740;2023-05-13T08:38:28;12.80;99.90
4964;DHT22;2497;47.410;9.740;2023-05-13T08:40:55;12.70;99.90
4964;DHT22;2497;47.410;9.740;2023-05-13T08:43:23;12.90;99.90
4964;DHT22;2497;47.410;9.740;2023-05-13T08:45:50;12.90;99.90
4964;DHT22;2497;47.410;9.740;2023-05-13T08:48:19;12.90;99.90
4964;DHT22;2497;47.410;9.740;2023-05-13T08:50:50;13.10;99.90
4964;DHT22;2497;47.410;9.740;2023-05-13T08:53:18;13.10;99.90
4964;DHT22;2497;47.410;9.740;2023-05-13T08:55:47;13.10;99.90
4964;DHT22;2497;47.410;9.740;2023-05-13T08:58:15;13.20;99.90
4964;DHT22;2497;47.410;9.740;2023-05-13T09:00:42;13.30;99.90
4964;DHT22;2497;47.410;9.740;2023-05-13T09:03:10;13.30;99.90
4964;DHT22;2497;47.410;9.740;2023-05-13T09:05:37;13.20;99.90
4964;DHT22;2497;47.410;9.740;2023-05-13T09:08:07;13.20;99.90
4964;DHT22;2497;47.410;9.740;2023-05-13T09:10:35;13.10;99.90
4964;DHT22;2497;47.410;9.740;2023-05-13T09:13:02;13.00;99.90
4964;DHT22;2497;47.410;9.740;2023-05-13T09:15:29;12.90;99.90
4964;DHT22;2497;47.410;9.740;2023-05-13T09:17:58;13.00;99.90
4964;DHT22;2497;47.410;9.740;2023-05-13T09:20:27;12.90;99.90
4964;DHT22;2497;47.410;9.740;2023-05-13T09:22:57;12.90;99.90
4964;DHT22;2497;47.410;9.740;2023-05-13T09:25:28;12.90;99.90
4964;DHT22;2497;47.410;9.740;2023-05-13T09:27:56;13.00;99.90
4964;DHT22;2497;47.410;9.740;2023-05-13T09:30:27;13.10;99.90
4964;DHT22;2497;47.410;9.740;2023-05-13T09:33:12;13.00;99.90
4964;DHT22;2497;47.410;9.740;2023-05-13T09:35:41;13.00;99.90
4964;DHT22;2497;47.410;9.740;2023-05-13T09:38:12;12.90;99.90
4964;DHT22;2497;47.410;9.740;2023-05-13T09:40:48;12.90;99.90
4964;DHT22;2497;47.410;9.740;2023-05-13T09:43:17;13.00;99.90
4964;DHT22;2497;47.410;9.740;2023-05-13T09:45:45;13.00;99.90
4964;DHT22;2497;47.410;9.740;2023-05-13T09:48:12;13.10;99.90
4964;DHT22;2497;47.410;9.740;2023-05-13T09:50:46;13.10;99.90
4964;DHT22;2497;47.410;9.740;2023-05-13T09:53:15;13.20;99.90
4964;DHT22;2497;47.410;9.740;2023-05-13T09:55:45;13.50;99.90
4964;DHT22;2497;47.410;9.740;2023-05-13T09:58:14;13.70;99.90
4964;DHT22;2497;47.410;9.740;2023-05-13T10:00:42;13.80;99.90
4964;DHT22;2497;47.410;9.740;2023-05-13T10:03:10;14.10;99.90
4964;DHT22;2497;47.410;9.740;2023-05-13T10:05:38;14.20;99.90
4964;DHT22;2497;47.410;9.740;2023-05-13T10:08:08;14.10;99.90
4964;DHT22;2497;47.410;9.740;2023-05-13T10:10:36;14.10;99.90
4964;DHT22;2497;47.410;9.740;2023-05-13T10:13:07;14.10;99.90
4964;DHT22;2497;47.410;9.740;2023-05-13T10:15:35;14.20;99.90
4964;DHT22;2497;47.410;9.740;2023-05-13T10:18:09;14.00;99.90
4964;DHT22;2497;47.410;9.740;2023-05-13T10:20:50;14.10;99.90
4964;DHT22;2497;47.410;9.740;2023-05-13T10:23:20;14.10;99.90
4964;DHT22;2497;47.410;9.740;2023-05-13T10:25:49;14.10;99.90
4964;DHT22;2497;47.410;9.740;2023-05-13T10:28:18;14.20;99.90
4964;DHT22;2497;47.410;9.740;2023-05-13T10:30:48;14.30;99.90
4964;DHT22;2497;47.410;9.740;2023-05-13T10:33:16;14.40;99.90
4964;DHT22;2497;47.410;9.740;2023-05-13T10:36:00;14.70;99.90
4964;DHT22;2497;47.410;9.740;2023-05-13T10:38:40;14.90;99.90
4964;DHT22;2497;47.410;9.740;2023-05-13T10:41:17;15.00;99.90
4964;DHT22;2497;47.410;9.740;2023-05-13T10:43:56;14.80;99.90
4964;DHT22;2497;47.410;9.740;2023-05-13T10:46:24;14.70;99.90
4964;DHT22;2497;47.410;9.740;2023-05-13T10:48:56;14.80;99.90
4964;DHT22;2497;47.410;9.740;2023-05-13T10:51:24;14.60;99.90
4964;DHT22;2497;47.410;9.740;2023-05-13T10:53:52;14.50;99.90
4964;DHT22;2497;47.410;9.740;2023-05-13T10:56:20;14.40;99.90
4964;DHT22;2497;47.410;9.740;2023-05-13T10:58:58;14.30;99.90
4964;DHT22;2497;47.410;9.740;2023-05-13T11:01:27;14.20;99.90
4964;DHT22;2497;47.410;9.740;2023-05-13T11:03:56;14.20;99.90
4964;DHT22;2497;47.410;9.740;2023-05-13T11:06:28;14.10;99.90
4964;DHT22;2497;47.410;9.740;2023-05-13T11:08:56;14.00;99.90
4964;DHT22;2497;47.410;9.740;2023-05-13T11:11:30;14.00;99.90
4964;DHT22;2497;47.410;9.740;2023-05-13T11:14:07;13.90;99.90
4964;DHT22;2497;47.410;9.740;2023-05-13T11:16:35;14.10;99.90
4964;DHT22;2497;47.410;9.740;2023-05-13T11:19:03;14.10;99.90
4964;DHT22;2497;47.410;9.740;2023-05-13T11:21:31;14.20;99.90
4964;DHT22;2497;47.410;9.740;2023-05-13T11:24:01;14.20;99.90
4964;DHT22;2497;47.410;9.740;2023-05-13T11:26:43;14.30;99.90
4964;DHT22;2497;47.410;9.740;2023-05-13T11:29:14;14.30;99.90
4964;DHT22;2497;47.410;9.740;2023-05-13T11:31:49;14.30;99.90
4964;DHT22;2497;47.410;9.740;2023-05-13T11:34:18;14.20;99.90
4964;DHT22;2497;47.410;9.740;2023-05-13T11:36:47;14.20;99.90
4964;DHT22;2497;47.410;9.740;2023-05-13T11:39:16;14.30;99.90
4964;DHT22;2497;47.410;9.740;2023-05-13T11:41:45;14.20;99.90
4964;DHT22;2497;47.410;9.740;2023-05-13T11:44:17;14.20;99.90
4964;DHT22;2497;47.410;9.740;2023-05-13T11:46:54;14.20;99.90
4964;DHT22;2497;47.410;9.740;2023-05-13T11:49:35;14.30;99.90
4964;DHT22;2497;47.410;9.740;2023-05-13T11:52:05;14.30;99.90
4964;DHT22;2497;47.410;9.740;2023-05-13T11:54:43;14.40;99.90
4964;DHT22;2497;47.410;9.740;2023-05-13T11:57:21;14.50;99.90
4964;DHT22;2497;47.410;9.740;2023-05-13T12:00:00;14.70;99.90
4964;DHT22;2497;47.410;9.740;2023-05-13T12:02:30;14.80;99.90
4964;DHT22;2497;47.410;9.740;2023-05-13T12:05:00;15.10;99.90
4964;DHT22;2497;47.410;9.740;2023-05-13T12:07:29;15.20;99.90
4964;DHT22;2497;47.410;9.740;2023-05-13T12:09:57;15.40;99.90
4964;DHT22;2497;47.410;9.740;2023-05-13T12:12:25;15.50;99.90
4964;DHT22;2497;47.410;9.740;2023-05-13T12:14:55;15.40;99.90
4964;DHT22;2497;47.410;9.740;2023-05-13T12:17:23;15.40;99.90
4964;DHT22;2497;47.410;9.740;2023-05-13T12:20:04;15.20;99.90
4964;DHT22;2497;47.410;9.740;2023-05-13T12:22:31;15.20;99.90
4964;DHT22;2497;47.410;9.740;2023-05-13T12:25:36;15.20;99.90
4964;DHT22;2497;47.410;9.740;2023-05-13T12:28:09;15.30;99.90
4964;DHT22;2497;47.410;9.740;2023-05-13T12:30:37;15.30;99.90
4964;DHT22;2497;47.410;9.740;2023-05-13T12:33:13;15.20;99.90
4964;DHT22;2497;47.410;9.740;2023-05-13T12:35:41;15.40;99.90
4964;DHT22;2497;47.410;9.740;2023-05-13T12:38:14;15.40;99.90
4964;DHT22;2497;47.410;9.740;2023-05-13T12:40:42;15.50;99.90
4964;DHT22;2497;47.410;9.740;2023-05-13T12:43:10;15.50;99.90
4964;DHT22;2497;47.410;9.740;2023-05-13T12:45:38;15.60;99.90
4964;DHT22;2497;47.410;9.740;2023-05-13T12:48:07;15.60;99.90
4964;DHT22;2497;47.410;9.740;2023-05-13T12:50:34;15.60;99.90
4964;DHT22;2497;47.410;9.740;2023-05-13T12:53:02;15.60;99.90
4964;DHT22;2497;47.410;9.740;2023-05-13T12:55:30;15.50;99.90
4964;DHT22;2497;47.410;9.740;2023-05-13T12:57:59;15.50;99.90
4964;DHT22;2497;47.410;9.740;2023-05-13T13:00:27;15.50;99.90
4964;DHT22;2497;47.410;9.740;2023-05-13T13:02:57;15.40;99.90
4964;DHT22;2497;47.410;9.740;2023-05-13T13:05:26;15.20;99.90
4964;DHT22;2497;47.410;9.740;2023-05-13T13:07:53;14.90;99.90
4964;DHT22;2497;47.410;9.740;2023-05-13T13:10:20;14.70;99.90
4964;DHT22;2497;47.410;9.740;2023-05-13T13:12:47;14.70;99.90
4964;DHT22;2497;47.410;9.740;2023-05-13T13:15:15;14.50;99.90
4964;DHT22;2497;47.410;9.740;2023-05-13T13:17:42;14.70;99.90
4964;DHT22;2497;47.410;9.740;2023-05-13T13:20:09;14.70;99.90
4964;DHT22;2497;47.410;9.740;2023-05-13T13:22:38;14.60;99.90
4964;DHT22;2497;47.410;9.740;2023-05-13T13:25:06;14.30;99.90
4964;DHT22;2497;47.410;9.740;2023-05-13T13:27:33;14.10;99.90
4964;DHT22;2497;47.410;9.740;2023-05-13T13:30:01;14.10;99.90
4964;DHT22;2497;47.410;9.740;2023-05-13T13:32:28;14.10;99.90
4964;DHT22;2497;47.410;9.740;2023-05-13T13:34:59;14.10;99.90
4964;DHT22;2497;47.410;9.740;2023-05-13T13:37:27;14.20;99.90
4964;DHT22;2497;47.410;9.740;2023-05-13T13:39:56;14.10;99.90
4964;DHT22;2497;47.410;9.740;2023-05-13T13:42:23;14.20;99.90
4964;DHT22;2497;47.410;9.740;2023-05-13T13:44:50;14.20;99.90
4964;DHT22;2497;47.410;9.740;2023-05-13T13:47:17;14.10;99.90
4964;DHT22;2497;47.410;9.740;2023-05-13T13:49:44;14.20;99.90
4964;DHT22;2497;47.410;9.740;2023-05-13T13:52:11;14.30;99.90
4964;DHT22;2497;47.410;9.740;2023-05-13T13:54:38;14.20;99.90
4964;DHT22;2497;47.410;9.740;2023-05-13T13:57:07;14.40;99.90
4964;DHT22;2497;47.410;9.740;2023-05-13T13:59:34;14.50;99.90
4964;DHT22;2497;47.410;9.740;2023-05-13T14:02:01;14.70;99.90
4964;DHT22;2497;47.410;9.740;2023-05-13T14:04:29;14.90;99.90
4964;DHT22;2497;47.410;9.740;2023-05-13T14:06:57;15.00;99.90
4964;DHT22;2497;47.410;9.740;2023-05-13T14:09:25;15.30;99.90
4964;DHT22;2497;47.410;9.740;2023-05-13T14:11:52;15.60;99.90
4964;DHT22;2497;47.410;9.740;2023-05-13T14:14:21;16.00;99.90
4964;DHT22;2497;47.410;9.740;2023-05-13T14:16:49;16.60;99.90
4964;DHT22;2497;47.410;9.740;2023-05-13T14:19:16;17.60;99.90
4964;DHT22;2497;47.410;9.740;2023-05-13T14:21:44;18.40;99.90
4964;DHT22;2497;47.410;9.740;2023-05-13T14:24:11;19.20;99.90
4964;DHT22;2497;47.410;9.740;2023-05-13T14:26:38;20.00;99.90
4964;DHT22;2497;47.410;9.740;2023-05-13T14:29:07;19.90;99.90
4964;DHT22;2497;47.410;9.740;2023-05-13T14:31:36;19.40;99.90
4964;DHT22;2497;47.410;9.740;2023-05-13T14:34:03;19.10;99.90
4964;DHT22;2497;47.410;9.740;2023-05-13T14:36:31;19.20;99.90
4964;DHT22;2497;47.410;9.740;2023-05-13T14:38:58;19.20;99.90
4964;DHT22;2497;47.410;9.740;2023-05-13T14:41:25;19.30;99.90
4964;DHT22;2497;47.410;9.740;2023-05-13T14:43:53;20.50;99.90
4964;DHT22;2497;47.410;9.740;2023-05-13T14:46:21;21.40;99.90
4964;DHT22;2497;47.410;9.740;2023-05-13T14:48:49;22.40;99.90
4964;DHT22;2497;47.410;9.740;2023-05-13T14:51:16;23.00;99.90
4964;DHT22;2497;47.410;9.740;2023-05-13T14:53:43;22.30;99.90
4964;DHT22;2497;47.410;9.740;2023-05-13T14:56:11;22.00;99.90
4964;DHT22;2497;47.410;9.740;2023-05-13T14:58:38;21.40;99.90
4964;DHT22;2497;47.410;9.740;2023-05-13T15:01:05;20.90;99.90
4964;DHT22;2497;47.410;9.740;2023-05-13T15:03:32;20.30;99.90
4964;DHT22;2497;47.410;9.740;2023-05-13T15:06:01;20.20;99.90
4964;DHT22;2497;47.410;9.740;2023-05-13T15:08:28;20.10;99.90
4964;DHT22;2497;47.410;9.740;2023-05-13T15:10:57;19.60;99.90
4964;DHT22;2497;47.410;9.740;2023-05-13T15:13:25;19.20;99.90
4964;DHT22;2497;47.410;9.740;2023-05-13T15:15:54;18.70;99.90
4964;DHT22;2497;47.410;9.740;2023-05-13T15:18:21;18.60;99.90
4964;DHT22;2497;47.410;9.740;2023-05-13T15:20:48;18.30;99.90
4964;DHT22;2497;47.410;9.740;2023-05-13T15:23:17;17.90;99.90
4964;DHT22;2497;47.410;9.740;2023-05-13T15:25:44;17.60;99.90
4964;DHT22;2497;47.410;9.740;2023-05-13T15:28:12;17.40;99.90
4964;DHT22;2497;47.410;9.740;2023-05-13T15:30:40;17.40;99.90
4964;DHT22;2497;47.410;9.740;2023-05-13T15:33:07;17.50;99.90
4964;DHT22;2497;47.410;9.740;2023-05-13T15:35:34;17.50;99.90
4964;DHT22;2497;47.410;9.740;2023-05-13T15:38:02;17.40;99.90
4964;DHT22;2497;47.410;9.740;2023-05-13T15:40:30;17.20;99.90
4964;DHT22;2497;47.410;9.740;2023-05-13T15:42:57;17.10;99.90
4964;DHT22;2497;47.410;9.740;2023-05-13T15:45:24;17.10;99.90
4964;DHT22;2497;47.410;9.740;2023-05-13T15:47:51;17.00;99.90
4964;DHT22;2497;47.410;9.740;2023-05-13T15:50:18;17.00;99.90
4964;DHT22;2497;47.410;9.740;2023-05-13T15:52:46;16.70;99.90
4964;DHT22;2497;47.410;9.740;2023-05-13T15:55:13;16.50;99.90
4964;DHT22;2497;47.410;9.740;2023-05-13T15:57:41;16.30;99.90
4964;DHT22;2497;47.410;9.740;2023-05-13T16:00:09;16.20;99.90
4964;DHT22;2497;47.410;9.740;2023-05-13T16:02:36;16.10;99.90
4964;DHT22;2497;47.410;9.740;2023-05-13T16:05:05;16.00;99.90
4964;DHT22;2497;47.410;9.740;2023-05-13T16:07:32;16.00;99.90
4964;DHT22;2497;47.410;9.740;2023-05-13T16:09:59;16.00;99.90